Terminal Aerodrome Forecast
Issued by NWS

Home | Current Version | Previous Version | Text Only | Print | Product List | Glossary On
Versions: 1 2 3 4 5 6 7 8 9 10 11 12 13 14 15 16 17 18 19 20 21 22
000
FTUS46 KLOX 260003 CCA
TAFSBP
TAF COR
KSBP 260003Z 2600/2624 32015G20KT P6SM SCT050
     FM260200 32010KT P6SM SCT150
     FM260400 32006KT P6SM SCT050 SCT150
     FM261000 VRB03KT 6SM BR SCT010 SCT150
     FM261600 34005KT P6SM SCT035 BKN070=

USA.gov is the U.S. government's official web portal to all federal, state and local government web resources and services.